Frankfort, MI

4:44 AM EST on February 21, 2017 (GMT -0500)
Frankfort | | Change Station
Active Advisory: Small Craft Advisory

Elev 633 ft 44.63 °N, 86.20 °W | Updated 9 minutes ago

Rain
Rain
50 °F
Feels Like 50 °F
N
9
Wind Variable Wind from South
Gusts 20 mph

Today
High -- | Low -- °F
--% Chance of Precip.
Yesterday
High -- | Low -- °F
Precip. -- in
Pressure 29.83 in
Visibility 7.0 miles
Clouds Scattered Clouds 1900 ft
Mostly Cloudy 2600 ft
Overcast 6500 ft
Dew Point 46 °F
Humidity 86%
Rainfall 0.00 in
Snow Depth Not available.
7:35 AM 6:22 PM
Waning Crescent, 26% visible
METAR KFKS 210935Z AUTO 17008G17KT 7SM RA SCT019 BKN026 OVC065 10/08 A2983 RMK AO2 T01020080
Pressure 29.83 in
Visibility 7.0 miles
Clouds Scattered Clouds 1900 ft
Mostly Cloudy 2600 ft
Overcast 6500 ft
Dew Point 46 °F
Humidity 86%
Rainfall 0.00 in
Snow Depth Not available.
7:35 AM 6:22 PM
Waning Crescent, 26% visible
METAR KFKS 210935Z AUTO 17008G17KT 7SM RA SCT019 BKN026 OVC065 10/08 A2983 RMK AO2 T01020080

Get Your Daily Forecast Email!

Thanks for signing up!

Be on the lookout for a verification email in your inbox.

You'll start receiving the daily forecast at 8 AM.

×

10-Day Weather Forecast

Almanac

Astronomy

Feb. 21, 2017 Rise Set
Actual Time
Civil Twilight
Nautical Twilight
Astronomical Twilight
Moon
Length of Visible Light
Length of Day
Tomorrow will be .
, % of the Moon is Illuminated

Today's Extremes

State Highs State Lows

Community

WunderPhotos

Upload Photos

1,962,540 photos uploaded!

WunderBlog® & News

Nearby

Air Quality

  Air Quality AQ Index Pollutant
Not available.

Snow Depth

Station Depth Elevation

Earthquake Activity

City Distance Mag. Time & Date
Minimum magnitude displayed is 2.5.

Coastal Water Temperatures

Place Temperature

Stations

Nearby Weather Stations

Station Location Temp. Windchill Dew Point Humidity Wind Precip. Elev Updated Type
                   

Watches & Warnings

Small Craft Advisory
Issued: 3:57 AM EST Feb. 21, 2017 – National Weather Service

... Small Craft Advisory remains in effect until 7 am EST this
morning...

A Small Craft Advisory remains in effect until 7 am EST this
morning.

* Please see the latest marine forecasts for more detailed
information.

Precautionary/preparedness actions

Inexperienced mariners... especially those operating smaller
vessels should avoid navigating in these conditions.